createdAt,value
2024-02-05T00:03:55.464Z,98413.56
2024-02-05T00:08:59.170Z,98406.02
2024-02-05T00:14:03.640Z,98403.13
2024-02-05T00:19:06.779Z,98396.55
2024-02-05T00:24:09.911Z,98388.46
2024-02-05T00:29:13.230Z,98384.69
2024-02-05T00:34:16.970Z,98379.10
2024-02-05T00:39:20.068Z,98369.02
2024-02-05T00:44:23.112Z,98362.90
2024-02-05T00:49:26.306Z,98363.04
2024-02-05T00:54:30.726Z,98352.25
2024-02-05T00:59:34.041Z,98353.72
2024-02-05T01:04:39.424Z,98346.55
2024-02-05T01:09:42.848Z,98342.50
2024-02-05T01:14:46.040Z,98342.59
2024-02-05T01:19:50.672Z,98336.64
2024-02-05T01:24:53.901Z,98334.19
2024-02-05T01:29:57.092Z,98334.33
2024-02-05T01:35:01.990Z,98335.13
2024-02-05T01:40:11.672Z,98334.20
2024-02-05T01:45:15.016Z,98335.59
2024-02-05T01:50:19.646Z,98329.73
2024-02-05T01:55:26.291Z,98322.67
2024-02-05T02:00:29.820Z,98323.80
2024-02-05T02:05:33.343Z,98317.73
2024-02-05T02:10:36.493Z,98310.33
2024-02-05T02:15:39.829Z,98307.04
2024-02-05T02:20:47.644Z,98292.81
2024-02-05T02:25:51.697Z,98292.29
2024-02-05T02:30:55.924Z,98291.98
2024-02-05T02:36:07.850Z,98301.58
2024-02-05T02:41:24.342Z,98308.06
2024-02-05T02:46:31.245Z,98283.33
2024-02-05T02:51:34.551Z,98301.19
2024-02-05T02:56:37.665Z,98289.71
2024-02-05T03:01:41.107Z,98292.22
2024-02-05T03:06:44.311Z,98280.05
2024-02-05T03:11:47.407Z,98265.89
2024-02-05T03:16:50.815Z,98254.14
2024-02-05T03:21:53.982Z,98254.02
2024-02-05T03:26:57.029Z,98261.36
2024-02-05T03:32:00.419Z,98283.24
2024-02-05T03:37:04.126Z,98291.51
2024-02-05T03:42:08.107Z,98284.25
2024-02-05T03:47:11.107Z,98276.02
2024-02-05T03:52:14.428Z,98282.48
2024-02-05T03:57:17.737Z,98272.97
2024-02-05T04:02:21.664Z,98258.05
2024-02-05T04:07:25.577Z,98271.30
2024-02-05T04:12:28.806Z,98268.67
2024-02-05T04:17:31.923Z,98261.54
2024-02-05T04:22:35.031Z,98265.70
2024-02-05T04:27:38.400Z,98266.59
2024-02-05T04:32:41.597Z,98274.23
2024-02-05T04:37:44.773Z,98272.38
2024-02-05T04:42:47.998Z,98277.98
2024-02-05T04:47:51.202Z,98273.39
2024-02-05T04:52:54.298Z,98276.82
2024-02-05T04:57:57.379Z,98281.52
2024-02-05T05:03:00.510Z,98280.66
2024-02-05T05:08:05.079Z,98294.38
2024-02-05T05:13:08.197Z,98305.63
2024-02-05T05:18:11.456Z,98302.52
2024-02-05T05:23:16.432Z,98301.27
2024-02-05T05:28:19.514Z,98311.59
2024-02-05T05:33:22.975Z,98323.29
2024-02-05T05:38:26.170Z,98321.03
2024-02-05T05:43:29.335Z,98323.94
2024-02-05T05:48:32.588Z,98321.16
2024-02-05T05:53:35.809Z,98321.48
2024-02-05T05:58:39.031Z,98328.40
2024-02-05T06:03:44.776Z,98334.44
2024-02-05T06:08:48.094Z,98336.48
2024-02-05T06:13:51.312Z,98338.85
2024-02-05T06:18:54.685Z,98340.08
2024-02-05T06:23:58.410Z,98342.81
2024-02-05T06:29:01.559Z,98347.59
2024-02-05T06:34:08.584Z,98359.94
2024-02-05T06:39:14.737Z,98361.81
2024-02-05T06:44:21.073Z,98364.73
2024-02-05T06:49:24.712Z,98361.42
2024-02-05T06:54:29.293Z,98371.61
2024-02-05T06:59:32.400Z,98378.74
2024-02-05T07:04:36.829Z,98387.89
2024-02-05T07:09:40.092Z,98391.79
2024-02-05T07:14:43.406Z,98389.89
2024-02-05T07:19:46.828Z,98397.85
2024-02-05T07:24:53.112Z,98413.81
2024-02-05T07:29:56.622Z,98421.77
2024-02-05T07:34:59.923Z,98426.52
2024-02-05T07:40:07.027Z,98427.60
2024-02-05T07:45:10.646Z,98436.54
2024-02-05T07:50:13.841Z,98439.02
2024-02-05T07:55:17.492Z,98446.37
2024-02-05T08:00:20.767Z,98454.82
2024-02-05T08:05:24.184Z,98457.45
2024-02-05T08:10:27.564Z,98468.77
2024-02-05T08:15:30.930Z,98460.71
2024-02-05T08:20:34.126Z,98468.87
2024-02-05T08:25:39.176Z,98474.28
2024-02-05T08:30:42.388Z,98473.80
2024-02-05T08:35:45.810Z,98475.50
2024-02-05T08:40:48.941Z,98478.59
2024-02-05T08:45:52.101Z,98482.07
2024-02-05T08:50:55.339Z,98484.04
2024-02-05T08:55:58.559Z,98489.84
2024-02-05T09:01:01.819Z,98487.41
2024-02-05T09:06:05.599Z,98484.46
2024-02-05T09:11:11.541Z,98485.66
2024-02-05T09:16:16.039Z,98485.45
2024-02-05T09:21:19.236Z,98485.98
2024-02-05T09:26:22.327Z,98495.34
2024-02-05T09:31:26.001Z,98497.89
2024-02-05T09:36:29.266Z,98507.62
2024-02-05T09:41:38.608Z,98501.70
2024-02-05T09:46:49.956Z,98510.09
2024-02-05T09:51:53.229Z,98517.20
2024-02-05T09:56:56.755Z,98517.75
2024-02-05T10:02:00.644Z,98528.31
2024-02-05T10:07:06.833Z,98530.16
2024-02-05T10:12:12.477Z,98528.63
2024-02-05T10:17:17.810Z,98533.48
2024-02-05T10:22:21.127Z,98536.62
2024-02-05T10:27:24.564Z,98543.42
2024-02-05T10:32:28.062Z,98551.52
2024-02-05T10:37:32.149Z,98553.58
2024-02-05T10:42:35.481Z,98558.94
2024-02-05T10:47:39.622Z,98565.97
2024-02-05T10:52:43.134Z,98569.14
2024-02-05T10:57:48.046Z,98570.94
2024-02-05T11:02:55.186Z,98585.08
2024-02-05T11:08:06.546Z,98571.73
2024-02-05T11:13:12.734Z,98565.05
2024-02-05T11:18:28.682Z,98565.89
2024-02-05T11:23:34.765Z,98560.31
2024-02-05T11:28:38.152Z,98566.67
2024-02-05T11:33:43.174Z,98573.30
2024-02-05T11:38:46.782Z,98575.09
2024-02-05T11:43:50.066Z,98572.28
2024-02-05T11:48:54.459Z,98581.36
2024-02-05T11:53:58.351Z,98579.48
2024-02-05T11:59:01.458Z,98584.70
2024-02-05T12:04:05.349Z,98591.90
2024-02-05T12:09:08.680Z,98608.05
2024-02-05T12:14:14.776Z,98610.92
2024-02-05T12:19:24.411Z,98606.73
2024-02-05T12:24:27.831Z,98605.30
2024-02-05T12:29:30.951Z,98617.55
2024-02-05T12:34:35.780Z,98624.61
2024-02-05T12:39:43.194Z,98619.08
2024-02-05T12:44:57.258Z,98632.33
2024-02-05T12:50:09.256Z,98656.98
2024-02-05T12:55:12.719Z,98673.95
2024-02-05T13:00:17.039Z,98671.30
2024-02-05T13:05:20.509Z,98671.66
2024-02-05T13:10:26.044Z,98667.41
2024-02-05T13:15:29.446Z,98671.99
2024-02-05T13:20:35.542Z,98675.27
2024-02-05T13:25:45.396Z,98680.58
2024-02-05T13:30:51.054Z,98686.64
2024-02-05T13:35:54.318Z,98684.19
2024-02-05T13:40:57.492Z,98694.25
2024-02-05T13:46:05.108Z,98696.55
2024-02-05T13:51:09.572Z,98698.44
2024-02-05T13:56:12.853Z,98695.12
2024-02-05T14:01:16.304Z,98699.72
2024-02-05T14:06:19.614Z,98701.38
2024-02-05T14:11:22.896Z,98698.36
2024-02-05T14:16:25.989Z,98697.10
2024-02-05T14:21:29.108Z,98698.75
2024-02-05T14:26:32.338Z,98700.26
2024-02-05T14:31:35.476Z,98694.89
2024-02-05T14:36:38.743Z,98695.23
2024-02-05T14:41:43.912Z,98693.67
2024-02-05T14:46:48.173Z,98700.65
2024-02-05T14:51:51.319Z,98715.41
2024-02-05T14:56:54.785Z,98715.07
2024-02-05T15:01:58.661Z,98719.05
2024-02-05T15:07:01.985Z,98722.68
2024-02-05T15:12:06.306Z,98725.05
2024-02-05T15:17:09.746Z,98731.73
2024-02-05T15:22:14.435Z,98734.73
2024-02-05T15:27:18.048Z,98740.65
2024-02-05T15:32:21.613Z,98740.14
2024-02-05T15:37:25.976Z,98732.16
2024-02-05T15:42:32.033Z,98745.16
2024-02-05T15:47:35.887Z,98754.34
2024-02-05T15:52:39.125Z,98752.84
2024-02-05T15:57:45.219Z,98760.04
2024-02-05T16:02:50.149Z,98762.13
2024-02-05T16:08:03.608Z,98765.70
2024-02-05T16:13:12.964Z,98766.23
2024-02-05T16:18:30.544Z,98772.45
2024-02-05T16:23:33.801Z,98779.48
2024-02-05T16:28:37.196Z,98776.92
2024-02-05T16:33:40.676Z,98787.29
2024-02-05T16:38:44.436Z,98782.44
2024-02-05T16:43:48.129Z,98787.75
2024-02-05T16:48:51.462Z,98787.75
2024-02-05T16:53:54.820Z,98794.84
2024-02-05T16:58:58.140Z,98795.23
2024-02-05T17:04:01.480Z,98790.25
2024-02-05T17:09:04.831Z,98783.58
2024-02-05T17:14:09.304Z,98774.69
2024-02-05T17:19:12.486Z,98771.31
2024-02-05T17:24:16.978Z,98772.27
2024-02-05T17:29:20.168Z,98773.20
2024-02-05T17:34:24.529Z,98764.12
2024-02-05T17:39:27.958Z,98771.61
2024-02-05T17:44:31.040Z,98770.47
2024-02-05T17:49:34.670Z,98776.02
2024-02-05T17:54:44.937Z,98782.64
2024-02-05T17:59:48.046Z,98785.15
2024-02-05T18:04:51.791Z,98793.36
2024-02-05T18:09:55.308Z,98810.73
2024-02-05T18:14:58.391Z,98809.45
2024-02-05T18:20:01.725Z,98801.41
2024-02-05T18:25:05.639Z,98802.02
2024-02-05T18:30:09.645Z,98803.30
2024-02-05T18:35:13.240Z,98801.79
2024-02-05T18:40:16.867Z,98803.92
2024-02-05T18:45:20.322Z,98809.02
2024-02-05T18:50:23.824Z,98813.77
2024-02-05T18:55:27.380Z,98811.95
2024-02-05T19:00:30.629Z,98806.48
2024-02-05T19:05:34.311Z,98806.39
2024-02-05T19:10:37.772Z,98804.36
2024-02-05T19:15:40.925Z,98800.09
2024-02-05T19:20:44.155Z,98804.60
2024-02-05T19:25:47.528Z,98812.05
2024-02-05T19:30:51.144Z,98813.11
2024-02-05T19:35:54.281Z,98812.98
2024-02-05T19:40:57.603Z,98812.98
2024-02-05T19:46:03.191Z,98813.89
2024-02-05T19:51:06.562Z,98814.42
2024-02-05T19:56:09.873Z,98812.71
2024-02-05T20:01:13.388Z,98809.83
2024-02-05T20:06:16.851Z,98803.64
2024-02-05T20:11:20.446Z,98804.75
2024-02-05T20:16:31.022Z,98799.12
2024-02-05T20:21:34.219Z,98800.75
2024-02-05T20:26:37.837Z,98797.73
2024-02-05T20:31:41.249Z,98798.67
2024-02-05T20:36:44.695Z,98801.48
2024-02-05T20:41:47.910Z,98800.15
2024-02-05T20:46:52.220Z,98793.33
2024-02-05T20:51:55.802Z,98790.29
2024-02-05T20:56:59.095Z,98799.33
2024-02-05T21:02:02.799Z,98797.85
2024-02-05T21:07:06.160Z,98797.05
2024-02-05T21:12:10.016Z,98806.07
2024-02-05T21:17:13.221Z,98799.05
2024-02-05T21:22:16.597Z,98804.95
2024-02-05T21:27:19.772Z,98809.30
2024-02-05T21:32:23.948Z,98814.84
2024-02-05T21:37:27.098Z,98810.90
2024-02-05T21:42:30.245Z,98802.48
2024-02-05T21:47:33.397Z,98799.07
2024-02-05T21:52:36.653Z,98800.64
2024-02-05T21:57:39.987Z,98805.66
2024-02-05T22:02:43.191Z,98807.21
2024-02-05T22:07:46.520Z,98803.94
2024-02-05T22:12:49.755Z,98806.37
2024-02-05T22:17:53.001Z,98806.56
2024-02-05T22:22:56.152Z,98799.16
2024-02-05T22:27:59.494Z,98803.83
2024-02-05T22:33:02.834Z,98804.84
2024-02-05T22:38:06.325Z,98803.98
2024-02-05T22:43:10.889Z,98800.89
2024-02-05T22:48:15.994Z,98798.31
2024-02-05T22:53:19.198Z,98799.34
2024-02-05T22:58:22.350Z,98792.81
2024-02-05T23:03:25.717Z,98793.33
2024-02-05T23:08:28.927Z,98786.27
2024-02-05T23:13:32.342Z,98782.66
2024-02-05T23:18:35.616Z,98783.02
2024-02-05T23:23:38.993Z,98774.59
2024-02-05T23:28:42.129Z,98774.23
2024-02-05T23:33:46.513Z,98773.04
2024-02-05T23:38:49.625Z,98770.45
2024-02-05T23:43:53.368Z,98769.41
2024-02-05T23:48:59.726Z,98765.30
2024-02-05T23:54:04.385Z,98767.87
2024-02-05T23:59:08.487Z,98760.64
